Concord, New Hampshire
Current Conditions -  °F | °C
As of 5:51 PM on Thursday 18 Dec 2014 (Local Time) from KCON Reporting Station
Overcast Overcast  
Wind Chill: -2°   Ceiling: 3100
Heat Index:   Visibility: 10mi
Dew Point: -3°   Wind: 9mph
Humidity: 70%   Direction: 300°WNW
Pressure: 29.82"   Gusts: NA
Location:  43.21°N, 71.54°W
Report Text: KCON 182251Z AUTO 30008KT 10SM OVC031 02/M03 A2982 RMK AO2 SLP102 T00221028
Loading
Personal Weather Stations






























Interactive Weather Map New forecast layout! Learn more

10-Day Weather Forecast

Advertisements
Track Severe Weather on mobile